Time;durP1;ratioP1;P1;durP2;ratioP2;P2;SDS_P1;SDS_P2;PMS_P1;PMS_P2;Temp;Humidity;BMP_temperature;BMP_pressure;BME280_temperature;BME280_humidity;BME280_pressure;Samples;Min_cycle;Max_cycle;Signal;HPM_P1;HPM_P2
2023/12/03 00:03:24;;;;;;;18.65;8.23;;;4.80;96.90;;;;;;10484193;28;20090;-68
2023/12/03 00:08:25;;;;;;;19.23;7.57;;;5.80;97.20;;;;;;10489140;28;20035;-68
2023/12/03 00:13:26;;;;;;;17.92;7.85;;;4.80;96.70;;;;;;10486378;28;20037;-68
2023/12/03 00:18:26;;;;;;;16.95;8.15;;;4.80;96.70;;;;;;10481017;28;20124;-68
2023/12/03 00:23:27;;;;;;;14.90;7.20;;;4.80;96.70;;;;;;10472533;28;20017;-68
2023/12/03 00:28:27;;;;;;;15.85;7.57;;;4.80;96.70;;;;;;10465975;28;20024;-68
2023/12/03 00:33:28;;;;;;;18.05;7.70;;;4.80;96.70;;;;;;10477655;28;20096;-68
2023/12/03 00:38:28;;;;;;;16.23;6.82;;;4.80;96.70;;;;;;10475151;28;20376;-68
2023/12/03 00:43:29;;;;;;;13.65;7.10;;;4.80;96.70;;;;;;10473772;28;20024;-68
2023/12/03 00:48:30;;;;;;;14.98;6.32;;;4.80;96.70;;;;;;10481707;28;20396;-68
2023/12/03 00:53:30;;;;;;;11.52;6.43;;;4.80;96.70;;;;;;10487570;28;20017;-68
2023/12/03 00:58:31;;;;;;;15.82;6.78;;;4.80;96.70;;;;;;10467656;28;20400;-68
2023/12/03 01:03:32;;;;;;;12.55;6.13;;;4.80;96.70;;;;;;10483403;28;20496;-68
2023/12/03 01:08:32;;;;;;;14.55;7.22;;;4.80;96.70;;;;;;10475009;28;20213;-69
2023/12/03 01:13:33;;;;;;;13.48;6.32;;;4.80;96.70;;;;;;10466576;28;20100;-69
2023/12/03 01:18:33;;;;;;;14.90;7.03;;;4.80;96.70;;;;;;10477726;28;20100;-69
2023/12/03 01:23:34;;;;;;;13.65;6.55;;;4.80;96.70;;;;;;10474406;28;20025;-68
2023/12/03 01:28:34;;;;;;;15.18;6.70;;;4.80;96.70;;;;;;10470973;28;20037;-68
2023/12/03 01:33:35;;;;;;;13.52;7.32;;;4.80;96.70;;;;;;10481467;28;20055;-67
2023/12/03 01:38:35;;;;;;;13.85;7.35;;;4.80;96.70;;;;;;10466855;28;20017;-68
2023/12/03 01:43:53;;;;;;;13.23;6.85;;;4.80;96.70;;;;;;10482320;28;20108;-69
2023/12/03 01:48:54;;;;;;;13.77;6.47;;;4.80;96.70;;;;;;10476070;28;20020;-68
2023/12/03 01:53:55;;;;;;;16.55;6.70;;;4.80;96.70;;;;;;10477011;28;20423;-69
2023/12/03 01:58:56;;;;;;;14.63;7.28;;;4.80;96.70;;;;;;10479533;28;20217;-68
2023/12/03 02:03:56;;;;;;;16.45;7.22;;;4.80;96.70;;;;;;10489452;28;20025;-68
2023/12/03 02:08:57;;;;;;;15.38;6.68;;;4.80;96.70;;;;;;10485198;28;20024;-68
2023/12/03 02:13:57;;;;;;;13.25;6.85;;;4.80;96.70;;;;;;10477315;28;20240;-68
2023/12/03 02:18:58;;;;;;;15.38;7.03;;;4.80;96.70;;;;;;10482739;28;20456;-68
2023/12/03 02:23:58;;;;;;;13.68;7.40;;;4.80;96.70;;;;;;10477604;28;20353;-69
2023/12/03 02:28:59;;;;;;;13.65;7.45;;;4.80;96.70;;;;;;10480723;28;20115;-69
2023/12/03 02:34:09;;;;;;;17.70;8.38;;;4.80;96.70;;;;;;10487325;28;20492;-67
2023/12/03 02:39:10;;;;;;;16.33;7.78;;;4.80;96.80;;;;;;10477398;28;20027;-69
2023/12/03 02:44:10;;;;;;;18.42;7.53;;;4.80;96.80;;;;;;10483953;28;20024;-68
2023/12/03 02:49:11;;;;;;;14.40;7.07;;;4.80;96.80;;;;;;10468394;28;20040;-68
2023/12/03 02:54:11;;;;;;;17.02;7.57;;;4.80;96.80;;;;;;10481823;28;20028;-68
2023/12/03 02:59:12;;;;;;;18.02;8.65;;;4.80;96.80;;;;;;10475705;28;20121;-68
2023/12/03 03:04:12;;;;;;;17.85;8.38;;;4.80;96.80;;;;;;10481982;28;20023;-68
2023/12/03 03:09:13;;;;;;;17.70;8.73;;;4.80;96.80;;;;;;10491693;28;20066;-68
2023/12/03 03:14:13;;;;;;;18.90;7.68;;;4.90;96.90;;;;;;10474789;28;20367;-69
2023/12/03 03:19:14;;;;;;;17.55;7.43;;;4.90;96.90;;;;;;10488557;28;20461;-68
2023/12/03 03:24:15;;;;;;;17.17;8.10;;;4.90;96.90;;;;;;10480516;28;20493;-69
2023/12/03 03:29:15;;;;;;;17.42;7.57;;;4.90;96.90;;;;;;10490694;28;20430;-69
2023/12/03 03:34:16;;;;;;;16.15;7.15;;;4.90;96.90;;;;;;10489191;28;20024;-68
2023/12/03 03:39:16;;;;;;;17.63;7.75;;;4.90;96.90;;;;;;10485495;28;20379;-69
2023/12/03 03:44:17;;;;;;;17.60;7.22;;;4.90;96.90;;;;;;10492974;28;20504;-68
2023/12/03 03:49:17;;;;;;;17.77;7.35;;;4.90;96.90;;;;;;10486683;28;20052;-68
2023/12/03 03:54:18;;;;;;;17.52;7.03;;;4.90;96.90;;;;;;10484838;28;20499;-70
2023/12/03 03:59:19;;;;;;;12.55;6.63;;;4.90;96.90;;;;;;10485538;28;20384;-69
2023/12/03 04:04:19;;;;;;;17.52;7.10;;;4.90;96.90;;;;;;10484477;28;20025;-70
2023/12/03 04:09:20;;;;;;;14.88;6.85;;;4.90;96.90;;;;;;10479559;28;20025;-70
2023/12/03 04:14:20;;;;;;;14.65;6.15;;;4.90;97.00;;;;;;10482736;28;20021;-69
2023/12/03 04:19:21;;;;;;;18.52;7.38;;;4.90;97.00;;;;;;10477236;28;20028;-70
2023/12/03 04:24:22;;;;;;;19.60;7.25;;;4.90;97.00;;;;;;10477828;28;20037;-70
2023/12/03 04:29:22;;;;;;;17.75;7.28;;;5.00;97.00;;;;;;10480845;28;20025;-70
2023/12/03 04:34:23;;;;;;;13.25;6.22;;;5.00;97.00;;;;;;10484815;28;20453;-69
2023/12/03 04:39:23;;;;;;;15.13;6.72;;;5.00;97.00;;;;;;10480613;28;20024;-70
2023/12/03 04:44:24;;;;;;;17.55;7.80;;;5.00;97.00;;;;;;10479242;28;20347;-70
2023/12/03 04:49:25;;;;;;;16.75;7.13;;;5.00;97.00;;;;;;10482238;28;20029;-70
2023/12/03 04:54:25;;;;;;;16.45;7.13;;;5.00;97.00;;;;;;10485904;28;20028;-70
2023/12/03 04:59:26;;;;;;;18.17;7.25;;;5.00;97.10;;;;;;10490580;28;20123;-69
2023/12/03 05:04:27;;;;;;;18.35;6.68;;;5.00;97.10;;;;;;10486934;28;20032;-69
2023/12/03 05:09:27;;;;;;;17.05;7.28;;;5.00;97.10;;;;;;10484208;28;20405;-69
2023/12/03 05:14:28;;;;;;;16.67;7.03;;;5.00;97.10;;;;;;10479875;28;20538;-70
2023/12/03 05:19:28;;;;;;;19.30;7.13;;;5.00;97.10;;;;;;10476456;28;20492;-70
2023/12/03 05:24:29;;;;;;;18.50;7.20;;;5.00;97.10;;;;;;10488467;28;20043;-70
2023/12/03 05:29:30;;;;;;;18.08;7.15;;;5.00;97.10;;;;;;10482329;28;20021;-70
2023/12/03 05:34:31;;;;;;;17.30;7.25;;;5.00;97.20;;;;;;10494206;28;20048;-70
2023/12/03 05:39:31;;;;;;;20.90;7.88;;;5.00;97.20;;;;;;10487725;28;20040;-70
2023/12/03 05:44:33;;;;;;;18.75;7.20;;;5.10;97.20;;;;;;10491988;28;20090;-70
2023/12/03 05:49:37;;;;;;;16.30;5.85;;;5.10;97.20;;;;;;10496350;28;20028;-69
2023/12/03 05:54:42;;;;;;;18.65;7.65;;;5.10;97.20;;;;;;10493948;28;20059;-69
2023/12/03 05:59:42;;;;;;;15.75;7.18;;;5.10;97.20;;;;;;10489883;28;20013;-69
2023/12/03 06:04:43;;;;;;;17.75;6.95;;;5.10;97.20;;;;;;10488937;28;20408;-69
2023/12/03 06:09:43;;;;;;;15.93;6.30;;;5.10;97.20;;;;;;10486102;28;20036;-70
2023/12/03 06:14:44;;;;;;;18.90;6.82;;;5.10;97.20;;;;;;10495539;28;20029;-70
2023/12/03 06:19:45;;;;;;;16.15;6.75;;;5.10;97.20;;;;;;10489375;28;20024;-70
2023/12/03 06:24:45;;;;;;;18.70;6.97;;;5.10;97.30;;;;;;10492785;28;20043;-70
2023/12/03 06:29:46;;;;;;;21.15;6.90;;;5.10;97.30;;;;;;10486674;28;20496;-70
2023/12/03 06:34:46;;;;;;;17.42;7.78;;;5.10;97.30;;;;;;10503371;28;20419;-69
2023/12/03 06:39:47;;;;;;;17.92;7.43;;;5.10;97.30;;;;;;10490365;28;20337;-69
2023/12/03 06:44:48;;;;;;;17.83;6.80;;;5.10;97.30;;;;;;10485345;28;20047;-70
2023/12/03 06:49:48;;;;;;;20.05;7.15;;;5.10;97.30;;;;;;10503065;28;20039;-70
2023/12/03 06:54:49;;;;;;;19.20;7.15;;;5.10;97.30;;;;;;10490053;28;20020;-70
2023/12/03 06:59:49;;;;;;;16.55;6.93;;;5.10;97.30;;;;;;10502502;28;20354;-69
2023/12/03 07:04:50;;;;;;;16.25;7.18;;;5.10;97.40;;;;;;10482310;28;20419;-69
2023/12/03 07:09:50;;;;;;;19.67;7.38;;;5.10;97.40;;;;;;10483886;28;20507;-69
2023/12/03 07:14:51;;;;;;;19.10;7.03;;;5.10;97.40;;;;;;10489063;28;20058;-70
2023/12/03 07:19:52;;;;;;;21.52;7.45;;;5.10;97.40;;;;;;10481638;28;20021;-70
2023/12/03 07:24:53;;;;;;;18.75;7.07;;;5.10;97.40;;;;;;10483911;28;20021;-69
2023/12/03 07:29:55;;;;;;;18.83;7.82;;;5.10;97.40;;;;;;10483875;28;20074;-70
2023/12/03 07:34:56;;;;;;;19.48;7.68;;;5.20;97.40;;;;;;10487028;28;20404;-69
2023/12/03 07:39:56;;;;;;;21.63;7.72;;;5.20;97.50;;;;;;10484681;28;20035;-70
2023/12/03 07:44:57;;;;;;;20.88;7.75;;;5.20;97.50;;;;;;10482073;28;20038;-70
2023/12/03 07:49:58;;;;;;;18.52;7.90;;;5.20;97.50;;;;;;10477425;28;20040;-70
2023/12/03 07:54:59;;;;;;;18.67;7.45;;;5.20;97.50;;;;;;10491075;28;20024;-69
2023/12/03 08:00:01;;;;;;;17.77;7.00;;;5.20;97.50;;;;;;10479507;28;20034;-69
2023/12/03 08:05:02;;;;;;;19.70;8.20;;;5.20;97.50;;;;;;10482036;28;20029;-69
2023/12/03 08:10:02;;;;;;;21.30;8.30;;;5.20;97.50;;;;;;10497370;28;20029;-69
2023/12/03 08:15:03;;;;;;;22.58;9.32;;;5.20;97.50;;;;;;10496349;28;20028;-69
2023/12/03 08:20:07;;;;;;;21.90;8.50;;;5.20;97.50;;;;;;10494255;28;20365;-69
2023/12/03 08:25:08;;;;;;;19.65;7.53;;;5.20;97.50;;;;;;10494894;28;20408;-70
2023/12/03 08:30:09;;;;;;;18.90;7.78;;;5.20;97.50;;;;;;10480886;28;20031;-70
2023/12/03 08:35:10;;;;;;;20.15;8.60;;;5.20;97.50;;;;;;10491218;28;20063;-69
2023/12/03 08:40:11;;;;;;;23.45;8.30;;;5.20;97.50;;;;;;10488561;28;20513;-69
2023/12/03 08:45:11;;;;;;;20.48;9.38;;;5.20;97.50;;;;;;10485034;28;20063;-69
2023/12/03 08:50:12;;;;;;;20.45;8.60;;;5.20;97.50;;;;;;10494322;28;20027;-69
2023/12/03 08:55:13;;;;;;;20.00;8.25;;;5.20;97.50;;;;;;10486551;28;20111;-70
2023/12/03 09:00:15;;;;;;;21.27;8.55;;;5.20;97.50;;;;;;10487119;28;20151;-70
2023/12/03 09:05:16;;;;;;;19.60;9.27;;;5.30;97.50;;;;;;10487176;28;20496;-70
2023/12/03 09:10:17;;;;;;;23.60;10.15;;;5.30;97.40;;;;;;10474062;28;20032;-69
2023/12/03 09:15:17;;;;;;;25.08;10.20;;;5.30;97.40;;;;;;10498986;28;20112;-70
2023/12/03 09:20:18;;;;;;;22.65;9.57;;;5.30;97.50;;;;;;10475899;28;20033;-70
2023/12/03 09:25:18;;;;;;;24.40;11.23;;;5.30;97.40;;;;;;10479894;28;20036;-71
2023/12/03 09:30:19;;;;;;;24.02;10.63;;;5.30;97.40;;;;;;10493102;28;20029;-71
2023/12/03 09:35:20;;;;;;;21.52;10.48;;;5.60;97.40;;;;;;10487965;28;20028;-71
2023/12/03 09:40:22;;;;;;;21.45;9.68;;;5.30;97.30;;;;;;10490306;28;20023;-71
2023/12/03 09:45:26;;;;;;;26.85;12.07;;;5.40;97.30;;;;;;10486560;28;20412;-71
2023/12/03 09:50:31;;;;;;;23.20;11.15;;;5.40;97.30;;;;;;10485049;28;20029;-71
2023/12/03 09:55:32;;;;;;;21.67;9.85;;;5.40;97.30;;;;;;10491297;28;20070;-69
2023/12/03 10:00:34;;;;;;;24.25;10.75;;;5.30;97.30;;;;;;10486483;28;20444;-70
2023/12/03 10:05:34;;;;;;;22.20;10.02;;;5.40;97.30;;;;;;10483411;28;20043;-70
2023/12/03 10:10:39;;;;;;;24.33;10.57;;;5.40;97.30;;;;;;10482619;28;20032;-70
2023/12/03 10:15:40;;;;;;;24.17;10.82;;;5.40;97.30;;;;;;10482095;28;20020;-69
2023/12/03 10:20:41;;;;;;;22.42;10.13;;;5.40;97.30;;;;;;10478574;28;20415;-70
2023/12/03 10:25:42;;;;;;;22.77;10.75;;;5.30;97.30;;;;;;10470940;28;20098;-69
2023/12/03 10:30:45;;;;;;;21.75;9.90;;;5.30;97.30;;;;;;10472004;28;20021;-70
2023/12/03 10:35:45;;;;;;;18.70;9.35;;;5.30;97.30;;;;;;10476454;28;20435;-70
2023/12/03 10:40:47;;;;;;;24.33;9.73;;;5.00;97.20;;;;;;10475561;28;20017;-73
2023/12/03 10:45:53;;;;;;;19.40;9.93;;;5.30;97.30;;;;;;10477305;28;20493;-71
2023/12/03 10:50:59;;;;;;;25.42;10.80;;;5.40;97.50;;;;;;10476967;28;20024;-69
2023/12/03 10:56:04;;;;;;;23.27;9.93;;;5.50;97.40;;;;;;10485899;28;20024;-67
2023/12/03 11:01:05;;;;;;;24.15;10.80;;;5.50;97.50;;;;;;10479839;28;20021;-68
2023/12/03 11:06:08;;;;;;;27.40;11.13;;;5.50;97.40;;;;;;10431740;28;1398776;-68
2023/12/03 11:11:11;;;;;;;22.25;11.93;;;5.50;97.70;;;;;;10476898;28;20379;-68
2023/12/03 11:16:13;;;;;;;24.33;11.60;;;5.50;97.40;;;;;;10482569;28;20028;-67
2023/12/03 11:21:19;;;;;;;22.35;11.45;;;5.60;97.40;;;;;;10480794;28;20031;-67
2023/12/03 11:26:20;;;;;;;25.95;12.05;;;5.60;97.30;;;;;;10481392;28;20047;-68
2023/12/03 11:31:23;;;;;;;26.67;12.13;;;5.60;97.30;;;;;;10475725;28;20035;-67
2023/12/03 11:36:42;;;;;;;27.80;11.65;;;5.70;97.20;;;;;;10480997;28;20028;-68
2023/12/03 11:41:43;;;;;;;24.50;10.98;;;5.70;97.10;;;;;;10486249;28;20713;-68
2023/12/03 11:46:49;;;;;;;23.63;11.15;;;5.90;97.20;;;;;;10471713;28;20025;-67
2023/12/03 11:51:50;;;;;;;24.75;11.32;;;5.90;97.00;;;;;;10472236;28;20134;-67
2023/12/03 11:56:52;;;;;;;24.13;12.05;;;6.00;97.00;;;;;;10476658;28;20032;-67
2023/12/03 12:01:53;;;;;;;26.38;10.77;;;5.90;97.00;;;;;;10475004;28;20029;-68
2023/12/03 12:06:53;;;;;;;24.30;11.10;;;5.90;97.00;;;;;;10473706;28;20029;-69
2023/12/03 12:11:54;;;;;;;24.67;11.27;;;5.90;97.00;;;;;;10471277;28;20267;-68
2023/12/03 12:16:55;;;;;;;21.88;10.05;;;5.90;97.00;;;;;;10487720;28;20484;-67
2023/12/03 12:21:56;;;;;;;24.48;10.52;;;5.80;97.00;;;;;;10477799;28;20028;-67
2023/12/03 12:26:57;;;;;;;23.17;10.18;;;5.80;97.00;;;;;;10477257;28;20869;-67
2023/12/03 12:32:00;;;;;;;21.55;10.73;;;5.80;97.00;;;;;;10481381;28;20025;-66
2023/12/03 12:37:07;;;;;;;24.33;10.10;;;5.70;97.00;;;;;;10478355;28;20039;-66
2023/12/03 12:42:24;;;;;;;21.90;8.85;;;5.70;97.00;;;;;;10479155;28;20029;-67
2023/12/03 12:47:39;;;;;;;19.90;9.30;;;5.70;97.00;;;;;;10473586;28;20099;-67
2023/12/03 12:52:40;;;;;;;23.98;9.77;;;5.70;97.00;;;;;;10484349;28;20517;-67
2023/12/03 12:57:40;;;;;;;19.65;8.43;;;5.70;97.00;;;;;;10479091;28;20037;-74
2023/12/03 13:02:42;;;;;;;18.27;8.35;;;5.70;97.00;;;;;;10468010;28;20548;-70
2023/12/03 13:07:43;;;;;;;22.23;8.45;;;5.60;96.90;;;;;;10472002;28;20044;-67
2023/12/03 13:12:43;;;;;;;21.27;8.30;;;5.60;97.10;;;;;;10480020;28;20052;-69
2023/12/03 13:17:46;;;;;;;17.38;8.77;;;5.50;97.10;;;;;;10472925;28;20049;-69
2023/12/03 13:22:49;;;;;;;20.60;8.43;;;5.50;96.60;;;;;;10477642;28;20291;-69
2023/12/03 13:27:50;;;;;;;20.23;8.15;;;5.50;97.10;;;;;;10468457;28;20036;-69
2023/12/03 13:32:50;;;;;;;19.20;8.00;;;5.60;97.10;;;;;;10475723;28;20039;-69
2023/12/03 13:37:51;;;;;;;19.50;8.35;;;5.60;97.00;;;;;;10472130;28;20036;-69
2023/12/03 13:42:53;;;;;;;18.25;7.53;;;5.60;97.10;;;;;;10476163;28;20037;-69
2023/12/03 13:47:53;;;;;;;19.00;9.27;;;5.70;97.30;;;;;;10485361;28;20028;-70
2023/12/03 13:52:54;;;;;;;18.98;8.50;;;5.70;97.10;;;;;;10481133;28;20529;-70
2023/12/03 13:57:54;;;;;;;20.27;8.93;;;5.50;97.00;;;;;;10485921;28;20020;-68
2023/12/03 14:02:55;;;;;;;20.40;8.48;;;5.60;97.20;;;;;;10488792;28;20020;-74
2023/12/03 14:07:56;;;;;;;20.02;9.15;;;5.40;97.00;;;;;;10484781;28;20040;-68
2023/12/03 14:12:56;;;;;;;22.85;8.98;;;5.00;97.30;;;;;;10481487;28;20086;-68
2023/12/03 14:17:57;;;;;;;22.10;8.50;;;5.00;97.50;;;;;;10498326;28;20064;-69
2023/12/03 14:22:58;;;;;;;23.88;9.15;;;5.10;97.40;;;;;;10480436;28;20480;-68
2023/12/03 14:27:59;;;;;;;22.10;9.15;;;5.10;97.30;;;;;;10487602;28;20036;-68
2023/12/03 14:32:59;;;;;;;20.77;8.35;;;5.20;97.30;;;;;;10488856;28;20039;-68
2023/12/03 14:38:00;;;;;;;20.23;8.85;;;5.20;97.20;;;;;;10490004;28;20024;-67
2023/12/03 14:43:00;;;;;;;19.10;8.02;;;5.20;97.10;;;;;;10490029;28;20021;-68
2023/12/03 14:48:01;;;;;;;18.77;8.18;;;5.20;97.10;;;;;;10483236;28;20032;-68
2023/12/03 14:53:02;;;;;;;19.08;8.25;;;5.30;97.10;;;;;;10480055;28;20037;-69
2023/12/03 14:58:02;;;;;;;18.50;7.60;;;5.20;96.90;;;;;;10482388;28;20081;-68
2023/12/03 15:03:05;;;;;;;20.90;8.55;;;5.30;97.00;;;;;;10491996;28;20096;-69
2023/12/03 15:08:05;;;;;;;18.08;8.23;;;5.30;96.90;;;;;;10478713;28;20481;-68
2023/12/03 15:13:06;;;;;;;19.67;8.13;;;5.30;96.90;;;;;;10486210;28;20040;-68
2023/12/03 15:18:06;;;;;;;18.83;8.27;;;5.30;96.80;;;;;;10490806;28;20450;-70
2023/12/03 15:23:07;;;;;;;21.33;8.77;;;5.40;97.10;;;;;;10480623;28;20542;-69
2023/12/03 15:28:07;;;;;;;35.45;7.95;;;5.50;98.20;;;;;;10487811;28;20028;-70
2023/12/03 15:33:08;;;;;;;16.73;7.05;;;5.70;97.80;;;;;;10486846;28;20029;-69
2023/12/03 15:38:09;;;;;;;21.05;7.95;;;5.80;97.70;;;;;;10486062;28;20016;-68
2023/12/03 15:43:10;;;;;;;18.05;8.27;;;5.90;98.00;;;;;;10492285;28;20031;-70
2023/12/03 15:48:14;;;;;;;32.05;9.15;;;5.90;97.90;;;;;;10483779;28;20024;-71
2023/12/03 15:53:14;;;;;;;25.80;7.95;;;6.00;98.10;;;;;;10483540;28;20107;-71
2023/12/03 15:58:16;;;;;;;27.63;7.05;;;6.40;98.30;;;;;;10484457;28;20024;-70
2023/12/03 16:03:17;;;;;;;27.38;7.70;;;6.50;98.10;;;;;;10481605;28;20499;-68
2023/12/03 16:08:18;;;;;;;20.35;7.25;;;6.30;98.10;;;;;;10480019;28;20028;-69
2023/12/03 16:13:18;;;;;;;22.30;8.07;;;6.20;98.20;;;;;;10471759;28;20036;-69
2023/12/03 16:18:19;;;;;;;24.83;8.18;;;6.10;98.30;;;;;;10483399;28;20040;-69
2023/12/03 16:23:19;;;;;;;23.92;7.75;;;6.00;98.30;;;;;;10479446;28;20111;-70
2023/12/03 16:28:20;;;;;;;19.15;7.35;;;6.00;98.30;;;;;;10471447;28;20067;-71
2023/12/03 16:33:21;;;;;;;21.85;7.95;;;5.90;98.30;;;;;;10484292;28;20062;-72
2023/12/03 16:38:21;;;;;;;16.88;6.85;;;5.90;98.30;;;;;;10492986;28;20071;-71
2023/12/03 16:43:24;;;;;;;16.42;7.43;;;5.90;98.20;;;;;;10484692;28;20086;-74
2023/12/03 16:48:24;;;;;;;25.20;8.27;;;5.80;98.20;;;;;;10481135;28;20627;-70
2023/12/03 16:53:25;;;;;;;32.53;9.00;;;5.70;98.20;;;;;;10488118;28;20024;-68
2023/12/03 16:58:25;;;;;;;23.90;8.70;;;5.80;98.10;;;;;;10486137;28;20024;-70
2023/12/03 17:03:26;;;;;;;22.55;8.32;;;5.90;97.90;;;;;;10483048;28;20102;-70
2023/12/03 17:08:26;;;;;;;21.23;8.68;;;5.70;97.80;;;;;;10483491;28;20433;-69
2023/12/03 17:13:27;;;;;;;17.17;7.85;;;5.60;97.70;;;;;;10475775;28;20055;-70
2023/12/03 17:18:27;;;;;;;21.55;7.78;;;5.60;97.70;;;;;;10486325;28;20025;-72
2023/12/03 17:23:28;;;;;;;17.58;7.93;;;5.60;97.70;;;;;;10481474;28;20123;-68
2023/12/03 17:28:29;;;;;;;17.42;7.32;;;5.50;97.70;;;;;;10485168;28;20059;-69
2023/12/03 17:33:29;;;;;;;19.17;8.18;;;5.50;97.70;;;;;;10475837;28;20039;-69
2023/12/03 17:38:30;;;;;;;16.92;7.63;;;5.50;97.70;;;;;;10490265;28;20024;-70
2023/12/03 17:43:30;;;;;;;21.42;9.07;;;5.50;97.60;;;;;;10500425;28;20021;-69
2023/12/03 17:48:31;;;;;;;17.33;7.97;;;5.50;97.60;;;;;;10492851;28;20024;-70
2023/12/03 17:53:31;;;;;;;18.42;7.50;;;5.50;97.60;;;;;;10482594;28;20040;-70
2023/12/03 17:58:32;;;;;;;14.45;6.88;;;5.50;97.60;;;;;;10490816;28;20086;-71
2023/12/03 18:03:33;;;;;;;16.73;7.82;;;5.40;97.60;;;;;;10476462;28;20039;-70
2023/12/03 18:08:34;;;;;;;15.85;7.43;;;5.40;97.50;;;;;;10490804;28;20108;-70
2023/12/03 18:13:34;;;;;;;21.17;7.80;;;5.40;97.50;;;;;;10479138;28;20484;-71
2023/12/03 18:18:35;;;;;;;16.40;7.22;;;5.40;97.50;;;;;;10486137;28;20059;-70
2023/12/03 18:23:35;;;;;;;16.98;7.75;;;5.40;97.40;;;;;;10485518;28;20043;-72
2023/12/03 18:28:36;;;;;;;15.13;7.05;;;4.90;97.30;;;;;;10485973;28;20496;-71
2023/12/03 18:33:37;;;;;;;17.15;7.32;;;5.40;97.50;;;;;;10489614;28;20024;-70
2023/12/03 18:38:38;;;;;;;15.98;7.22;;;5.40;97.50;;;;;;10473724;28;20477;-71
2023/12/03 18:43:38;;;;;;;18.58;7.45;;;5.30;97.50;;;;;;10491425;28;20028;-71
2023/12/03 18:48:39;;;;;;;17.02;7.32;;;5.30;97.50;;;;;;10490361;28;20042;-72
2023/12/03 18:53:40;;;;;;;14.18;6.72;;;5.30;97.50;;;;;;10486915;28;20281;-71
2023/12/03 18:58:41;;;;;;;13.63;6.22;;;5.40;97.50;;;;;;10466818;28;20493;-71
2023/12/03 19:03:42;;;;;;;14.95;7.00;;;5.40;97.40;;;;;;10478788;28;20012;-70
2023/12/03 19:08:42;;;;;;;17.27;6.50;;;5.40;97.40;;;;;;10489305;28;20036;-69
2023/12/03 19:13:43;;;;;;;17.65;8.25;;;5.40;97.40;;;;;;10487080;28;20036;-69
2023/12/03 19:18:43;;;;;;;15.70;6.88;;;5.40;97.40;;;;;;10480870;28;20037;-71
2023/12/03 19:23:44;;;;;;;19.30;8.20;;;5.40;97.40;;;;;;10484168;28;20472;-70
2023/12/03 19:28:45;;;;;;;14.77;7.47;;;5.40;97.40;;;;;;10483731;28;20035;-70
2023/12/03 19:33:45;;;;;;;16.55;7.50;;;5.40;97.40;;;;;;10482348;28;20039;-68
2023/12/03 19:38:46;;;;;;;17.35;7.70;;;5.40;97.30;;;;;;10485177;28;20407;-70
2023/12/03 19:43:47;;;;;;;16.65;6.82;;;5.40;97.30;;;;;;10488807;28;20418;-70
2023/12/03 19:48:47;;;;;;;17.67;7.82;;;5.30;97.30;;;;;;10479103;28;20298;-70
2023/12/03 19:53:48;;;;;;;18.55;8.02;;;5.30;97.30;;;;;;10482606;28;20403;-71
2023/12/03 19:58:49;;;;;;;16.15;7.78;;;5.30;97.30;;;;;;10482456;28;20040;-70
2023/12/03 20:03:50;;;;;;;15.15;7.03;;;5.30;97.20;;;;;;10477945;28;20085;-71
2023/12/03 20:08:50;;;;;;;17.27;7.97;;;5.30;97.20;;;;;;10482216;28;20032;-70
2023/12/03 20:13:51;;;;;;;14.77;7.35;;;5.30;97.30;;;;;;10483829;28;20339;-71
2023/12/03 20:18:52;;;;;;;14.68;7.07;;;5.30;97.30;;;;;;10484574;28;20111;-69
2023/12/03 20:23:52;;;;;;;19.15;8.13;;;5.20;97.30;;;;;;10484860;28;20446;-70
2023/12/03 20:28:53;;;;;;;19.65;8.05;;;5.20;97.30;;;;;;10476661;28;20107;-69
2023/12/03 20:33:54;;;;;;;18.33;8.35;;;5.20;97.30;;;;;;10476042;28;20029;-71
2023/12/03 20:38:54;;;;;;;20.02;8.88;;;5.20;97.30;;;;;;10485060;28;20082;-69
2023/12/03 20:43:55;;;;;;;20.23;9.00;;;5.20;97.30;;;;;;10492074;28;20037;-70
2023/12/03 20:48:56;;;;;;;18.15;7.15;;;5.20;97.30;;;;;;10492124;28;20069;-68
2023/12/03 20:53:56;;;;;;;19.42;8.45;;;5.10;97.30;;;;;;10483708;28;20066;-70
2023/12/03 20:58:57;;;;;;;19.27;8.80;;;5.10;97.40;;;;;;10481571;28;20032;-68
2023/12/03 21:03:57;;;;;;;17.48;8.85;;;5.10;97.40;;;;;;10479856;28;20035;-70
2023/12/03 21:08:58;;;;;;;22.52;9.40;;;5.10;97.40;;;;;;10481058;28;20089;-70
2023/12/03 21:13:59;;;;;;;19.85;8.82;;;5.10;97.50;;;;;;10491191;28;20840;-70
2023/12/03 21:19:00;;;;;;;20.25;9.02;;;5.10;97.50;;;;;;10494422;28;20492;-69
2023/12/03 21:24:01;;;;;;;18.65;8.35;;;5.00;97.40;;;;;;10489976;28;20082;-71
2023/12/03 21:29:01;;;;;;;21.35;8.95;;;5.00;97.50;;;;;;10489909;28;20036;-69
2023/12/03 21:34:02;;;;;;;23.60;9.05;;;5.00;97.50;;;;;;10489972;28;20135;-70
2023/12/03 21:39:05;;;;;;;20.05;9.77;;;5.00;97.50;;;;;;10491241;28;20795;-69
2023/12/03 21:44:06;;;;;;;23.58;9.02;;;5.00;97.50;;;;;;10483560;28;20059;-69
2023/12/03 21:49:06;;;;;;;19.08;9.48;;;5.00;97.40;;;;;;10490778;28;20548;-70
2023/12/03 21:54:07;;;;;;;18.88;8.82;;;5.00;97.40;;;;;;10500673;28;20028;-72
2023/12/03 21:59:08;;;;;;;17.55;8.77;;;5.00;97.40;;;;;;10491048;28;20028;-72
2023/12/03 22:04:08;;;;;;;17.15;8.23;;;5.00;97.50;;;;;;10483856;28;20031;-71
2023/12/03 22:09:09;;;;;;;18.17;8.63;;;5.00;97.50;;;;;;10480140;28;20035;-71
2023/12/03 22:14:09;;;;;;;18.73;8.65;;;5.00;97.50;;;;;;10481328;28;20512;-72
2023/12/03 22:19:10;;;;;;;17.60;8.07;;;5.00;97.50;;;;;;10488332;28;20470;-72
2023/12/03 22:24:11;;;;;;;18.65;7.78;;;5.00;97.50;;;;;;10483120;28;20496;-72
2023/12/03 22:29:12;;;;;;;16.63;8.45;;;5.00;97.40;;;;;;10477440;28;20029;-73
2023/12/03 22:34:13;;;;;;;16.25;8.13;;;5.00;97.50;;;;;;10490431;28;20036;-72
2023/12/03 22:39:14;;;;;;;15.15;7.63;;;5.00;97.50;;;;;;10477095;28;20036;-72
2023/12/03 22:44:14;;;;;;;17.42;8.25;;;5.00;97.50;;;;;;10487771;28;20483;-73
2023/12/03 22:49:17;;;;;;;14.43;7.45;;;5.20;97.50;;;;;;10480755;28;20397;-71
2023/12/03 22:54:18;;;;;;;16.35;7.38;;;5.00;97.50;;;;;;10484811;28;20027;-72
2023/12/03 22:59:19;;;;;;;15.93;7.43;;;5.00;97.50;;;;;;10487243;28;20416;-72
2023/12/03 23:04:19;;;;;;;13.90;7.22;;;5.00;97.50;;;;;;10474429;28;20477;-73
2023/12/03 23:09:20;;;;;;;17.05;8.10;;;5.00;97.50;;;;;;10469176;28;20039;-74
2023/12/03 23:14:20;;;;;;;16.30;8.10;;;5.00;97.50;;;;;;10482883;28;20062;-73
2023/12/03 23:19:21;;;;;;;15.20;7.82;;;5.00;97.60;;;;;;10473216;28;20040;-73
2023/12/03 23:24:22;;;;;;;16.10;7.35;;;5.00;97.50;;;;;;10483489;28;20078;-72
2023/12/03 23:29:22;;;;;;;16.58;8.20;;;5.00;97.50;;;;;;10470007;28;20498;-73
2023/12/03 23:34:23;;;;;;;18.08;8.55;;;5.00;97.50;;;;;;10492923;28;20737;-73
2023/12/03 23:39:23;;;;;;;15.13;7.75;;;5.20;97.60;;;;;;10482423;28;20403;-72
2023/12/03 23:44:24;;;;;;;14.82;7.78;;;5.00;97.50;;;;;;10494683;28;20024;-73
2023/12/03 23:49:24;;;;;;;16.38;8.40;;;5.00;97.50;;;;;;10496834;28;20238;-73
2023/12/03 23:54:25;;;;;;;15.13;7.88;;;4.90;97.50;;;;;;10483587;28;20415;-72
2023/12/03 23:59:27;;;;;;;17.88;9.20;;;4.90;97.50;;;;;;10478633;28;20537;-73
